Latest Weather Observations for Merriwa

IDN60801

Issued at 8:03 pm EST Tuesday 26 July 2016 (issued every 30 minutes, with the page automatically refreshed every 10 minutes)

About weather observations | Map of weather stations | Latest weather observations for NSW | Other Formats
Station Details ID: 061287 Name: MERRIWA (ROSCOMMON) Lat: -32.19 Lon: 150.17 Height: 375.0 m
Data from the previous 72 hours. | See also: Recent months at Merriwa
Date/Time
EST
Temp
°C
App
Temp
°C
Dew
Point
°C
Rel
Hum
%
Delta-T
°C
Wind Press
QNH
hPa
Press
MSL
hPa
Rain since
9am
mm
Dir  Spd
km/h
Gust
km/h
Spd
kts
Gust
kts
26/08:00pm 10.5 6.2 5.3 70 2.4 NNW 17 24 9 13 1017.3 1017.9 0.0
26/07:30pm 11.3 6.6 5.2 66 2.9 NW 19 26 10 14 1017.4 1018.0 0.0
26/07:00pm 11.5 6.3 5.4 66 2.9 NW 22 32 12 17 1017.1 1017.8 0.0
26/06:30pm 11.1 6.3 5.4 68 2.7 NW 20 28 11 15 1017.0 1017.6 0.0
26/06:00pm 10.9 6.2 5.9 71 2.4 WNW 20 28 11 15 1016.9 1017.5 0.0
26/05:30pm 10.8 6.1 5.3 69 2.6 WNW 19 26 10 14 1016.6 1017.2 0.0
26/05:00pm 12.2 7.4 5.4 63 3.2 NW 20 28 11 15 1016.3 1016.9 0.0
26/04:30pm 13.9 10.2 6.3 60 3.7 WNW 15 32 8 17 1016.1 1016.7 0.0
26/04:00pm 13.3 8.6 5.9 61 3.6 WNW 20 30 11 16 1016.2 1016.8 0.0
26/03:30pm 14.5 8.7 6.1 57 4.1 WNW 26 33 14 18 1016.2 1016.8 0.0
26/03:00pm 14.5 9.8 6.1 57 4.1 W 20 32 11 17 1016.3 1016.9 0.0
26/02:30pm 14.8 10.2 6.4 57 4.1 W 20 30 11 16 1016.3 1016.9 0.0
26/02:00pm 14.6 7.6 6.2 57 4.1 WNW 32 41 17 22 1016.3 1016.9 0.0
26/01:30pm 13.6 6.2 5.0 56 4.1 WNW 33 44 18 24 1016.6 1017.2 0.0
26/01:00pm 14.7 8.9 6.3 57 4.1 W 26 39 14 21 1016.7 1017.3 0.0
26/12:30pm 13.9 7.5 5.3 56 4.1 WNW 28 41 15 22 1017.1 1017.8 0.0
26/12:11pm 14.3 8.0 5.9 57 4.1 WNW 28 46 15 25 1017.3 1017.9 0.0
26/12:00pm 14.2 8.0 6.3 59 3.9 WNW 28 39 15 21 1017.5 1018.1 0.0
26/11:30am 13.4 7.4 5.3 58 3.9 W 26 41 14 22 1017.8 1018.4 0.0
26/11:00am 13.0 7.1 5.7 61 3.5 WNW 26 35 14 19 1018.2 1018.8 0.0
26/10:30am 12.4 6.1 5.6 63 3.2 WNW 28 35 15 19 1018.5 1019.1 0.0
26/10:00am 11.5 5.5 5.2 65 2.9 WNW 26 35 14 19 1018.8 1019.4 0.0
26/09:30am 10.9 4.5 5.0 67 2.7 WNW 28 35 15 19 1019.0 1019.6 0.0
26/09:00am 9.8 3.2 4.4 69 2.4 NW 28 39 15 21 1019.1 1019.7 0.0
26/08:30am 8.9 3.0 4.1 72 2.1 WNW 24 33 13 18 1019.1 1019.7 0.0
26/08:00am 7.4 2.2 3.6 77 1.7 WNW 20 26 11 14 1019.3 1019.9 0.0
26/07:30am 6.6 1.4 3.4 80 1.4 NW 20 30 11 16 1019.1 1019.7 0.0
26/07:00am 5.3 0.6 3.0 85 1.0 WNW 17 24 9 13 1019.0 1019.6 0.0
26/06:30am 5.6 0.3 2.8 82 1.2 NW 20 24 11 13 1018.6 1019.2 0.0
26/06:00am 5.6 0.3 2.9 83 1.1 NW 20 26 11 14 1018.3 1018.9 0.0
26/05:30am 5.4 0.1 2.9 84 1.1 NW 20 26 11 14 1018.2 1018.8 0.0
26/05:00am 5.3 0.2 3.0 85 1.0 NW 19 22 10 12 1018.1 1018.7 0.0
26/04:30am 5.8 0.5 3.1 83 1.1 NW 20 30 11 16 1018.1 1018.7 0.0
26/04:00am 5.9 0.3 3.2 83 1.1 NW 22 28 12 15 1018.0 1018.6 0.0
26/03:30am 5.9 0.6 3.1 82 1.2 WNW 20 26 11 14 1018.2 1018.8 0.0
26/03:00am 5.2 0.2 3.4 88 0.8 WNW 19 26 10 14 1018.1 1018.7 0.0
26/02:30am 5.0 0.2 2.5 84 1.0 WNW 17 22 9 12 1018.1 1018.7 0.0
26/02:00am 6.3 1.2 3.1 80 1.4 WNW 19 24 10 13 1018.1 1018.7 0.0
26/01:30am 6.6 1.0 3.4 80 1.4 NW 22 30 12 16 1018.2 1018.8 0.0
26/01:00am 6.2 0.2 3.4 82 1.2 NW 24 30 13 16 1018.3 1018.9 0.0
26/12:30am 6.1 0.9 3.4 83 1.2 NW 20 26 11 14 1018.6 1019.2 0.0
26/12:00am 6.0 1.4 3.8 86 0.9 WNW 17 24 9 13 1018.9 1019.5 0.0
 
Date/Time
EST
Temp
°C
App
Temp
°C
Dew
Point
°C
Rel
Hum
%
Delta-T
°C
Wind Press
QNH
hPa
Press
MSL
hPa
Rain since
9am
mm
Dir  Spd
km/h
Gust
km/h
Spd
kts
Gust
kts
25/11:30pm 5.1 0.8 3.4 89 0.7 WNW 15 19 8 10 1018.6 1019.2 0.0
25/11:00pm 5.6 1.7 3.3 85 1.0 W 13 19 7 10 1018.5 1019.1 0.0
25/10:30pm 6.6 1.5 3.9 83 1.2 NW 20 28 11 15 1018.4 1019.0 0.0
25/10:00pm 6.7 1.8 4.0 83 1.2 NW 19 24 10 13 1018.3 1018.9 0.0
25/09:30pm 5.9 1.7 3.6 85 1.0 NW 15 19 8 10 1018.1 1018.7 0.0
25/09:00pm 6.1 1.5 3.8 85 1.0 NW 17 20 9 11 1018.2 1018.8 0.0
25/08:30pm 5.6 1.6 3.1 84 1.1 NW 13 17 7 9 1018.1 1018.7 0.0
25/08:00pm 6.7 2.4 3.5 80 1.4 NW 15 20 8 11 1018.1 1018.7 0.0
25/07:30pm 7.7 3.1 3.9 77 1.7 NW 17 24 9 13 1017.8 1018.4 0.0
25/07:00pm 8.0 3.4 3.7 74 1.9 NW 17 20 9 11 1017.7 1018.3 0.0
25/06:30pm 9.0 3.8 3.8 70 2.3 NW 20 28 11 15 1017.5 1018.1 0.0
25/06:00pm 8.9 4.4 4.1 72 2.1 WNW 17 20 9 11 1017.3 1017.9 0.0
25/05:30pm 8.3 4.2 4.3 76 1.8 WNW 15 19 8 10 1016.9 1017.5 0.0
25/05:00pm 10.0 5.9 4.4 68 2.5 WNW 15 20 8 11 1016.5 1017.1 0.0
25/04:30pm 12.0 7.1 4.2 59 3.6 WNW 19 28 10 15 1016.2 1016.8 0.0
25/04:00pm 12.0 5.4 4.0 58 3.7 WNW 28 37 15 20 1016.1 1016.7 0.0
25/03:30pm 12.6 6.5 4.6 58 3.7 WNW 26 37 14 20 1016.0 1016.6 0.0
25/03:00pm 12.3 6.4 3.8 56 3.9 W 24 35 13 19 1016.0 1016.6 0.0
25/02:30pm 12.6 6.8 4.6 58 3.7 W 24 37 13 20 1016.0 1016.6 0.0
25/02:00pm 11.5 4.4 3.3 57 3.7 WNW 30 41 16 22 1016.3 1016.9 0.0
25/01:30pm 10.8 5.3 4.0 63 3.1 W 22 33 12 18 1016.4 1017.0 0.0
25/01:00pm 11.6 5.9 4.8 63 3.2 W 24 33 13 18 1016.6 1017.2 0.0
25/12:30pm 11.3 4.0 4.7 64 3.1 WNW 32 39 17 21 1016.9 1017.5 0.0
25/12:00pm 11.4 3.5 4.2 61 3.3 WNW 35 48 19 26 1017.1 1017.8 0.0
25/11:30am 11.3 3.4 4.3 62 3.2 WNW 35 50 19 27 1017.5 1018.1 0.0
25/11:00am 10.6 3.6 3.9 63 3.0 W 30 48 16 26 1017.9 1018.5 0.0
25/10:51am 10.3 3.7 4.0 65 2.8 W 28 48 15 26 1018.0 1018.6 0.0
25/10:30am 11.0 4.0 4.2 63 3.1 WNW 30 43 16 23 1017.8 1018.4 0.0
25/10:00am 10.3 3.7 4.0 65 2.8 WNW 28 39 15 21 1018.0 1018.6 0.0
25/09:30am 10.4 4.5 4.1 65 2.9 W 24 35 13 19 1018.0 1018.6 0.0
25/09:00am 9.6 3.3 4.0 68 2.5 WNW 26 37 14 20 1017.6 1018.2 0.2
25/08:30am 8.6 2.3 3.6 71 2.2 WNW 26 33 14 18 1017.3 1017.9 0.2
25/08:00am 7.7 1.8 3.7 76 1.8 NW 24 33 13 18 1017.0 1017.6 0.2
25/07:30am 6.5 1.3 3.7 82 1.2 WNW 20 28 11 15 1016.8 1017.4 0.2
25/07:00am 5.9 0.9 3.4 84 1.1 NW 19 28 10 15 1016.4 1017.0 0.2
25/06:30am 5.7 0.7 3.4 85 1.0 NW 19 24 10 13 1015.9 1016.5 0.2
25/06:00am 5.7 1.0 3.4 85 1.0 WNW 17 20 9 11 1015.6 1016.2 0.2
25/05:30am 6.3 1.3 3.6 83 1.2 NW 19 22 10 12 1015.2 1015.8 0.2
25/05:00am 7.1 2.0 4.1 81 1.3 NW 20 26 11 14 1015.0 1015.6 0.2
25/04:30am 7.3 2.4 4.3 81 1.3 WNW 19 28 10 15 1014.7 1015.2 0.0
25/04:00am 7.3 2.4 4.1 80 1.4 NW 19 28 10 15 1014.3 1014.9 0.0
25/03:30am 8.2 2.7 4.2 76 1.8 WNW 22 30 12 16 1014.2 1014.8 0.0
25/03:00am 9.1 2.6 4.5 73 2.1 NW 28 37 15 20 1013.9 1014.5 0.0
25/02:30am 9.3 2.8 4.7 73 2.1 NW 28 39 15 21 1014.0 1014.6 0.0
25/02:00am 8.6 3.3 5.0 78 1.6 NW 22 30 12 16 1014.0 1014.6 0.0
25/01:30am 8.3 3.4 5.1 80 1.5 WNW 20 28 11 15 1014.2 1014.8 0.0
25/01:00am 9.0 1.9 5.6 79 1.6 NW 32 43 17 23 1014.3 1014.9 0.0
25/12:43am 9.0 3.5 5.9 81 1.4 NW 24 52 13 28 1014.2 1014.8 0.0
25/12:30am 5.0 1.7 4.3 95 0.3 NNW 11 13 6 7 1014.3 1014.9 0.0
25/12:00am 5.2 2.5 3.7 90 0.6 SW 7 9 4 5 1014.5 1015.0 0.0
 
Date/Time
EST
Temp
°C
App
Temp
°C
Dew
Point
°C
Rel
Hum
%
Delta-T
°C
Wind Press
QNH
hPa
Press
MSL
hPa
Rain since
9am
mm
Dir  Spd
km/h
Gust
km/h
Spd
kts
Gust
kts
24/11:30pm 5.4 1.8 3.1 85 1.0 NW 11 13 6 7 1014.7 1015.2 0.0
24/11:00pm 5.1 1.4 2.3 82 1.2 NNW 11 13 6 7 1014.5 1015.0 0.0
24/10:30pm 5.9 2.2 2.4 78 1.5 NNW 11 13 6 7 1014.6 1015.1 0.0
24/10:00pm 7.4 4.0 4.2 80 1.4 NNW 11 13 6 7 1015.1 1015.7 0.0
24/09:30pm 6.3 2.9 4.0 85 1.0 NNW 11 15 6 8 1015.2 1015.8 0.0
24/09:00pm 5.6 2.3 2.4 80 1.3 NNW 9 11 5 6 1015.3 1015.9 0.0
24/08:30pm 6.8 4.6 3.4 79 1.5 NW 4 9 2 5 1015.4 1016.0 0.0
24/08:00pm 7.5 4.0 3.6 76 1.7 NNW 11 15 6 8 1015.6 1016.2 0.0
24/07:30pm 6.7 3.7 4.0 83 1.2 NNW 9 11 5 6 1015.4 1016.0 0.0
24/07:00pm 5.8 2.6 3.3 84 1.1 WNW 9 11 5 6 1015.4 1016.0 0.0
24/06:30pm 5.2 2.2 2.0 80 1.3 W 7 9 4 5 1015.1 1015.7 0.0
24/06:00pm 5.6 2.7 1.5 75 1.7 W 6 7 3 4 1014.6 1015.1 0.0
24/05:30pm 7.3 4.5 1.8 68 2.3 WNW 6 7 3 4 1014.2 1014.8 0.0
24/05:00pm 8.0 5.2 1.8 65 2.6 WNW 6 7 3 4 1014.2 1014.8 0.0
24/04:30pm 9.0 5.5 1.4 59 3.2 WNW 9 13 5 7 1013.8 1014.4 0.0
24/04:00pm 9.6 4.8 0.0 51 3.9 NW 15 20 8 11 1013.8 1014.4 0.0
24/03:30pm 10.1 4.6 0.4 51 4.0 WNW 19 26 10 14 1014.2 1014.8 0.0
24/03:00pm 9.8 4.1 0.4 52 3.9 NW 20 26 11 14 1014.3 1014.9 0.0
24/02:30pm 9.6 4.3 -0.6 49 4.1 WNW 17 22 9 12 1014.7 1015.2 0.0
24/02:00pm 9.7 4.7 -1.1 47 4.3 WNW 15 22 8 12 1014.9 1015.4 0.0
24/01:30pm 9.5 4.4 -2.1 44 4.5 NW 15 20 8 11 1014.8 1015.3 0.0
24/01:00pm 8.9 4.1 -2.7 44 4.4 NNW 13 17 7 9 1015.3 1015.9 0.0
24/12:30pm 9.0 4.4 -1.4 48 4.1 NNW 13 19 7 10 1015.7 1016.3 0.0
24/12:00pm 9.2 5.4 -0.9 49 4.0 WNW 9 19 5 10 1016.8 1017.4 0.0
24/11:30am 8.8 4.6 -0.8 51 3.8 W 11 17 6 9 1017.0 1017.6 0.0
24/11:00am 8.5 3.6 -0.8 52 3.7 WNW 15 19 8 10 1017.9 1018.5 0.0
24/10:30am 8.3 3.1 0.3 57 3.3 NW 17 20 9 11 1018.6 1019.2 0.0
24/10:00am 8.3 3.5 0.1 56 3.3 NW 15 19 8 10 1018.3 1018.9 0.0
24/09:30am 8.3 3.5 0.3 57 3.3 NW 15 19 8 10 1017.9 1018.5 0.0
24/09:00am 7.1 2.8 1.0 65 2.5 NW 13 15 7 8 1017.8 1018.4 0.0
24/08:30am 6.2 2.0 1.5 72 1.9 NW 13 15 7 8 1017.4 1018.0 0.0
24/08:00am 4.8 1.6 3.0 88 0.8 NW 9 11 5 6 1017.3 1017.9 0.0
24/07:30am 2.3 -0.9 0.7 89 0.6 NW 7 11 4 6 1017.0 1017.6 0.0
24/07:00am 2.5 -0.6 0.2 85 0.9 WNW 6 7 3 4 1016.2 1016.8 0.0
24/06:30am 2.8 -0.5 0.4 84 0.9 WNW 7 9 4 5 1016.2 1016.8 0.0
24/06:00am 3.4 0.2 1.0 84 0.9 NW 7 9 4 5 1015.7 1016.3 0.0
24/05:30am 3.1 -0.4 1.0 86 0.8 NW 9 13 5 7 1015.9 1016.5 0.0
24/05:00am 3.5 0.4 1.4 86 0.8 NW 7 9 4 5 1015.7 1016.3 0.0
24/04:30am 3.5 -0.3 1.5 87 0.8 NW 11 13 6 7 1015.9 1016.5 0.0
24/04:00am 4.0 0.5 1.5 84 1.0 NNW 9 15 5 8 1015.7 1016.3 0.0
24/03:30am 4.1 0.3 1.8 85 0.9 NW 11 15 6 8 1015.7 1016.3 0.0
24/03:00am 4.7 0.5 1.9 82 1.1 NW 13 15 7 8 1015.3 1015.9 0.0
24/02:30am 5.2 0.7 2.2 81 1.2 NW 15 17 8 9 1015.7 1016.3 0.0
24/02:00am 5.3 0.5 2.5 82 1.2 NW 17 20 9 11 1015.8 1016.4 0.0
24/01:30am 4.8 0.7 2.2 83 1.1 NW 13 17 7 9 1015.9 1016.5 0.0
24/01:00am 5.6 0.8 2.4 80 1.3 WNW 17 20 9 11 1016.0 1016.6 0.0
24/12:30am 5.8 1.4 2.8 81 1.3 WNW 15 20 8 11 1015.7 1016.3 0.0
24/12:00am 4.7 -0.2 2.2 84 1.0 WNW 17 20 9 11 1015.6 1016.2 0.0
 
Date/Time
EST
Temp
°C
App
Temp
°C
Dew
Point
°C
Rel
Hum
%
Delta-T
°C
Wind Press
QNH
hPa
Press
MSL
hPa
Rain since
9am
mm
Dir  Spd
km/h
Gust
km/h
Spd
kts
Gust
kts
23/11:30pm 6.4 2.4 2.9 78 1.5 W 13 20 7 11 1015.7 1016.3 0.0
23/11:00pm 6.1 1.4 3.3 82 1.2 WNW 17 24 9 13 1015.6 1016.2 0.0
23/10:30pm 6.0 1.7 3.2 82 1.2 WNW 15 20 8 11 1015.5 1016.1 0.0
23/10:00pm 6.3 1.1 3.3 81 1.3 WNW 20 26 11 14 1015.2 1015.8 0.0
23/09:30pm 6.8 1.8 3.4 79 1.5 WNW 19 24 10 13 1015.1 1015.7 0.0
23/09:00pm 6.7 1.5 3.3 79 1.5 WNW 20 26 11 14 1014.9 1015.4 0.0
23/08:30pm 6.9 0.9 3.2 77 1.6 WNW 24 28 13 15 1014.5 1015.0 0.0

Other Formats:

Comma delimited format used in spreadsheet applications
http://www.bom.gov.au/fwo/IDN60801/IDN60801.95754.axf

JavaScript Object Notation format (JSON) in row-major order
http://www.bom.gov.au/fwo/IDN60801/IDN60801.95754.json